Flight Track Log - Related Links

Times and Time Zones

All times are in EDT time to prevent confusion due to time zone crossing. See the KAP29 flight status page for this flight to view local times or setup timezone preferences in your user account.


Time Position Orientation Groundspeed Altitude Reporting Facility
EDT Latitude Longitude Course Direction KTS MPH feet Rate Location/Type
Fri 04:26:40 PM 44.1414 -73.5597 120° Southeast 164 189 11,400  Level Boston Center
Fri 04:27:40 PM 44.1128 -73.4897 120° Southeast 194 223 11,300 -150 Descending Boston Center
Fri 04:28:40 PM 44.0822 -73.4197 121° Southeast 206 237 11,100 -150 Descending Boston Center
Fri 04:29:40 PM 44.0556 -73.3442 116° Southeast 206 237 11,000 -45 Descending Boston Center
Fri 04:30:52 PM 44.0250 -73.2803 124° Southeast 206 237 11,000  Level Boston Center
Fri 04:31:52 PM 43.9794 -73.2047 130° Southeast 193 222 11,000  Level Boston Center
Fri 04:32:52 PM 43.9467 -73.1464 128° Southeast 193 222 11,000  Level Boston Center
Fri 04:33:52 PM 43.9136 -73.0856 127° Southeast 193 222 11,000 -50 Level Boston Center
Fri 04:34:52 PM 43.8806 -73.0219 126° Southeast 193 222 10,900  Descending Boston Center
Fri 04:35:52 PM 43.8475 -72.9583 126° Southeast 204 235 11,000 50 Climbing Boston Center
Fri 04:36:52 PM 43.8167 -72.8919 123° Southeast 199 229 11,000  Level Boston Center
Fri 04:37:52 PM 43.7897 -72.8283 120° Southeast 199 229 11,000  Level Boston Center
Fri 04:38:52 PM 43.7608 -72.7678 123° Southeast 199 229 11,000 -50 Level Boston Center
Fri 04:39:52 PM 43.7297 -72.7044 124° Southeast 199 229 10,900 -50 Descending Boston Center
Fri 04:40:52 PM 43.7006 -72.6383 121° Southeast 199 229 10,900 50 Level Boston Center
Fri 04:41:52 PM 43.6694 -72.5722 123° Southeast 199 229 11,000 100 Climbing Boston Center
Fri 04:42:52 PM 43.6383 -72.5061 123° Southeast 199 229 11,100 50 Climbing Boston Center
Fri 04:43:52 PM 43.6111 -72.4400 120° Southeast 199 229 11,100  Level Boston Center
Fri 04:44:52 PM 43.5819 -72.3742 121° Southeast 199 229 11,100 -50 Level Boston Center
Fri 04:45:52 PM 43.5528 -72.3025 119° Southeast 205 236 11,000 -150 Descending Boston Center
Fri 04:46:52 PM 43.5236 -72.2311 119° Southeast 212 244 10,800 -250 Descending Boston Center
Fri 04:47:52 PM 43.4900 -72.1625 124° Southeast 212 244 10,500 -300 Descending Boston Center
Fri 04:48:52 PM 43.4586 -72.0911 121° Southeast 212 244 10,200 -300 Descending Boston Center
Fri 04:49:52 PM 43.4250 -72.0228 124° Southeast 212 244 9,900 -300 Descending Boston Center
Fri 04:50:52 PM 43.3811 -71.9603 134° Southeast 217 250 9,600 -227 Descending Boston Center
Fri 04:52:04 PM 43.3453 -71.9119 136° Southeast 204 235 9,400 -318 Descending Boston Center
Fri 04:53:04 PM 43.2908 -71.8383 135° Southeast 198 228 8,900 -500 Descending Boston Center
Fri 04:54:04 PM 43.2508 -71.7817 134° Southeast 198 228 8,400 -400 Descending Boston Center
Fri 04:55:04 PM 43.2089 -71.7250 135° Southeast 198 228 8,100 -550 Descending Boston Center
Fri 04:56:04 PM 43.1647 -71.6658 136° Southeast 210 242 7,300 -550 Descending Boston Center
Fri 04:57:04 PM 43.1247 -71.6122 136° Southeast 210 242 7,000 -117 Descending Boston Center
Fri 04:57:47 PM 43.1000 -71.5667 127° Southeast 192 221 7,100  Climbing KA90
Fri 04:58:47 PM 43.0667 -71.5167 132° Southeast 188 216 7,000 -50 Descending KA90
Fri 04:59:47 PM 43.0167 -71.4833 154° Southeast 182 209 7,000 -100 Level KA90
Fri 05:00:47 PM 42.9833 -71.4167 124° Southeast 192 221 6,800 -350 Descending KA90
Fri 05:01:47 PM 42.9500 -71.3667 132° Southeast 202 232 6,300 -550 Descending KA90
Fri 05:02:47 PM 42.9167 -71.3167 132° Southeast 201 231 5,700 -550 Descending KA90
Fri 05:03:47 PM 42.8667 -71.2500 136° Southeast 198 228 5,200 -350 Descending KA90
Fri 05:04:47 PM 42.8333 -71.2000 132° Southeast 188 216 5,000 -99 Descending KA90
Fri 05:05:48 PM 42.8000 -71.1667 144° Southeast 175 201 5,000 -198 Level KA90
Fri 05:06:48 PM 42.7667 -71.1167 132° Southeast 179 206 4,600 -384 Descending KA90
Fri 05:07:53 PM 42.7167 -71.0667 144° Southeast 183 211 4,200 -303 Descending KA90
Fri 05:08:47 PM 42.7000 -71.0167 114° Southeast 180 207 4,000 -104 Descending KA90
Fri 05:09:48 PM 42.6667 -70.9667 132° Southeast 170 196 4,000  Level KA90
Fri 05:10:48 PM 42.6333 -70.9167 132° Southeast 163 188 4,000  Level KA90
Fri 05:11:48 PM 42.6000 -70.9000 160° South 139 160 4,000 -50 Level KA90
Fri 05:12:48 PM 42.5667 -70.9000 180° South 124 143 3,900 -303 Descending KA90
Fri 05:13:47 PM 42.5333 -70.9167 200° South 135 155 3,400 -500 Descending KA90
Fri 05:14:48 PM 42.5000 -70.9333 200° South 135 155 2,900 -545 Descending KA90
Fri 05:15:48 PM 42.4667 -70.9667 216° Southwest 142 163 2,300 -632 Descending KA90
Fri 05:16:42 PM 42.4333 -70.9667 180° South 144 166 1,700 -842 Descending KA90
Fri 05:17:42 PM 42.4000 -70.9833 200° South 121 139 700 -1,000 Descending KA90
Fri 05:19:00 PM 42.3630 -71.0064 200° South  Level Estimated

Login

Don't have an account? Register now (free) for customized features, flight alerts, and more!